Sisters, OR

1:09 AM PDT on July 06, 2015 (GMT -0700)
Bradley Road, Sisters East | | Change Station
CLOSE
Current Station
Personal Weather Station
Location: Sisters, OR
Elevation: 3117 ft
Nearby Weather Stations

Elev 3117 ft 44.29 °N, 121.50 °W | Updated 3 seconds ago

Partly Cloudy
Partly Cloudy
65.1 °F
Feels Like 65.1 °F
N
2.0
Wind Variable Wind from SSW
Gusts 2.0 mph

Today
High -- | Low -- °F
--% Chance of Precip.
Yesterday
High -- | Low -- °F
Precip. -- in
5:28 AM 8:52 PM
Waning Gibbous, 77% visible
Pressure 29.93 in
Visibility 10.0 miles
Clouds Clear
Dew Point 45 °F
Humidity 48%
Rainfall 0.00 in
Snow Depth Not available.
UV 0 out of 12
Pollen 8.80 out of 12
Air Quality Not available.
Flu Activity Not available.
METAR KRDM 060756Z AUTO 00000KT 10SM CLR 19/05 A3002 RMK AO2 SLP133 T01890050 403560100 $

More Conditions Fewer Conditions

Pressure 29.93 in
Visibility 10.0 miles
Clouds Clear
Dew Point 45 °F
Humidity 48%
Rainfall 0.00 in
Snow Depth Not available.
UV 0 out of 12
Pollen 8.80 out of 12
Air Quality Not available.
Flu Activity Not available.
METAR KRDM 060756Z AUTO 00000KT 10SM CLR 19/05 A3002 RMK AO2 SLP133 T01890050 403560100 $

More Conditions Fewer Conditions

10-Day Weather Forecast

×

Almanac

Astronomy

Jul. 06, 2015 Rise Set
Actual Time
Civil Twilight
Nautical Twilight
Astronomical Twilight
Moon
Length of Visible Light
Length of Day
Tomorrow will be .
, % of the Moon is Illuminated

Today's Extremes

State Highs State Lows

Community

WunderPhotos

Upload Photos

1,835,508 photos uploaded!

WunderBlogs® & News

Nearby

Air Quality

  Air Quality AQ Index Pollutant
Not available.

Snow Depth

Station Depth Elevation

Earthquake Activity

City Distance Mag. Time & Date
Minimum magnitude displayed is 2.5.

Coastal Water Temperatures

Place Temperature

Stations

Nearby Weather Stations

Station Location Temp. Windchill Dew Point Humidity Wind Precip. Elev Updated Type
                   
Fire Weather Watch
Statement as of 12:52 PM PDT on July 05, 2015

... Fire Weather Watch in effect from Monday afternoon through
Tuesday evening for thunderstorms producing abundant lightning...

The National Weather Service in Pendleton has issued a Fire
Weather Watch... which is in effect from Monday afternoon through
Tuesday evening.

* Affected area... in orz611... fire weather zone 611.

* Timing... the expected time for scattered thunderstorms will be
between 2 PM and 8 PM Monday and Tuesday.

* Lightning activity... 3.

* Precipitation... some storms may bring brief heavy rain with
amounts up to one quarter of an inch of rain.

* Impacts... any fires that develop will likely spread rapidly.
Outdoor burning is not recommended.

Precautionary/preparedness actions...

A Fire Weather Watch means that critical fire weather conditions
are forecast to occur. Listen for later forecasts and possible
red flag warnings.